sensor_id;sensor_type;location;lat;lon;timestamp;P1;durP1;ratioP1;P2;durP2;ratioP2
5403;SDS011;2725;51.054;6.948;2022-07-25T00:00:03;4.3;;;3.9;;
5403;SDS011;2725;51.054;6.948;2022-07-25T00:05:02;3.7;;;3.3;;
5403;SDS011;2725;51.054;6.948;2022-07-25T00:10:02;3.7;;;3.3;;
5403;SDS011;2725;51.054;6.948;2022-07-25T00:15:01;4.2;;;3.8;;
5403;SDS011;2725;51.054;6.948;2022-07-25T00:20:02;4.2;;;3.8;;
5403;SDS011;2725;51.054;6.948;2022-07-25T00:25:01;4.0;;;3.4;;
5403;SDS011;2725;51.054;6.948;2022-07-25T00:30:02;4.0;;;3.4;;
5403;SDS011;2725;51.054;6.948;2022-07-25T00:35:02;3.9;;;3.4;;
5403;SDS011;2725;51.054;6.948;2022-07-25T00:40:01;3.9;;;3.4;;
5403;SDS011;2725;51.054;6.948;2022-07-25T00:45:01;4.5;;;3.6;;
5403;SDS011;2725;51.054;6.948;2022-07-25T00:50:01;4.5;;;3.6;;
5403;SDS011;2725;51.054;6.948;2022-07-25T00:55:01;3.9;;;3.5;;
5403;SDS011;2725;51.054;6.948;2022-07-25T01:00:03;3.9;;;3.5;;
5403;SDS011;2725;51.054;6.948;2022-07-25T01:05:03;3.9;;;3.5;;
5403;SDS011;2725;51.054;6.948;2022-07-25T01:10:02;3.9;;;3.5;;
5403;SDS011;2725;51.054;6.948;2022-07-25T01:15:02;4.1;;;3.7;;
5403;SDS011;2725;51.054;6.948;2022-07-25T01:20:02;4.1;;;3.7;;
5403;SDS011;2725;51.054;6.948;2022-07-25T01:25:04;4.4;;;4.0;;
5403;SDS011;2725;51.054;6.948;2022-07-25T01:30:03;4.4;;;4.0;;
5403;SDS011;2725;51.054;6.948;2022-07-25T01:35:03;5.1;;;3.8;;
5403;SDS011;2725;51.054;6.948;2022-07-25T01:40:02;5.1;;;3.8;;
5403;SDS011;2725;51.054;6.948;2022-07-25T01:45:02;5.1;;;4.2;;
5403;SDS011;2725;51.054;6.948;2022-07-25T01:50:01;5.1;;;4.2;;
5403;SDS011;2725;51.054;6.948;2022-07-25T01:55:01;5.1;;;4.1;;
5403;SDS011;2725;51.054;6.948;2022-07-25T02:00:03;5.1;;;4.1;;
5403;SDS011;2725;51.054;6.948;2022-07-25T02:05:01;4.8;;;4.2;;
5403;SDS011;2725;51.054;6.948;2022-07-25T02:10:02;4.8;;;4.2;;
5403;SDS011;2725;51.054;6.948;2022-07-25T02:15:01;5.0;;;4.3;;
5403;SDS011;2725;51.054;6.948;2022-07-25T02:20:02;5.0;;;4.3;;
5403;SDS011;2725;51.054;6.948;2022-07-25T02:25:01;5.0;;;4.0;;
5403;SDS011;2725;51.054;6.948;2022-07-25T02:30:01;5.0;;;4.0;;
5403;SDS011;2725;51.054;6.948;2022-07-25T02:35:01;5.3;;;4.4;;
5403;SDS011;2725;51.054;6.948;2022-07-25T02:40:02;5.3;;;4.4;;
5403;SDS011;2725;51.054;6.948;2022-07-25T02:45:01;5.0;;;4.5;;
5403;SDS011;2725;51.054;6.948;2022-07-25T02:50:01;5.0;;;4.5;;
5403;SDS011;2725;51.054;6.948;2022-07-25T02:55:01;5.4;;;4.3;;
5403;SDS011;2725;51.054;6.948;2022-07-25T03:00:03;5.4;;;4.3;;
5403;SDS011;2725;51.054;6.948;2022-07-25T03:05:04;5.7;;;4.3;;
5403;SDS011;2725;51.054;6.948;2022-07-25T03:10:02;5.7;;;4.3;;
5403;SDS011;2725;51.054;6.948;2022-07-25T03:15:02;5.5;;;4.4;;
5403;SDS011;2725;51.054;6.948;2022-07-25T03:20:01;5.5;;;4.4;;
5403;SDS011;2725;51.054;6.948;2022-07-25T03:25:01;5.3;;;4.3;;
5403;SDS011;2725;51.054;6.948;2022-07-25T03:30:02;5.3;;;4.3;;
5403;SDS011;2725;51.054;6.948;2022-07-25T03:35:01;5.4;;;4.4;;
5403;SDS011;2725;51.054;6.948;2022-07-25T03:40:01;5.4;;;4.4;;
5403;SDS011;2725;51.054;6.948;2022-07-25T03:45:01;6.3;;;4.6;;
5403;SDS011;2725;51.054;6.948;2022-07-25T03:50:02;6.3;;;4.6;;
5403;SDS011;2725;51.054;6.948;2022-07-25T03:55:01;6.4;;;4.5;;
5403;SDS011;2725;51.054;6.948;2022-07-25T04:00:03;6.4;;;4.5;;
5403;SDS011;2725;51.054;6.948;2022-07-25T04:05:01;6.2;;;4.6;;
5403;SDS011;2725;51.054;6.948;2022-07-25T04:10:01;6.2;;;4.6;;
5403;SDS011;2725;51.054;6.948;2022-07-25T04:15:01;7.0;;;4.5;;
5403;SDS011;2725;51.054;6.948;2022-07-25T04:20:01;7.0;;;4.5;;
5403;SDS011;2725;51.054;6.948;2022-07-25T04:25:01;7.1;;;4.5;;
5403;SDS011;2725;51.054;6.948;2022-07-25T04:30:01;7.1;;;4.5;;
5403;SDS011;2725;51.054;6.948;2022-07-25T04:35:02;5.2;;;4.0;;
5403;SDS011;2725;51.054;6.948;2022-07-25T04:40:02;5.2;;;4.0;;
5403;SDS011;2725;51.054;6.948;2022-07-25T04:45:01;4.3;;;3.5;;
5403;SDS011;2725;51.054;6.948;2022-07-25T04:50:01;4.3;;;3.5;;
5403;SDS011;2725;51.054;6.948;2022-07-25T04:55:01;3.8;;;3.4;;
5403;SDS011;2725;51.054;6.948;2022-07-25T05:00:03;3.8;;;3.4;;
5403;SDS011;2725;51.054;6.948;2022-07-25T05:05:01;4.9;;;3.7;;
5403;SDS011;2725;51.054;6.948;2022-07-25T05:10:01;4.9;;;3.7;;
5403;SDS011;2725;51.054;6.948;2022-07-25T05:15:02;4.5;;;3.5;;
5403;SDS011;2725;51.054;6.948;2022-07-25T05:20:01;4.5;;;3.5;;
5403;SDS011;2725;51.054;6.948;2022-07-25T05:25:01;4.4;;;3.5;;
5403;SDS011;2725;51.054;6.948;2022-07-25T05:30:03;4.4;;;3.5;;
5403;SDS011;2725;51.054;6.948;2022-07-25T05:35:02;4.3;;;3.5;;
5403;SDS011;2725;51.054;6.948;2022-07-25T05:40:02;4.3;;;3.5;;
5403;SDS011;2725;51.054;6.948;2022-07-25T05:45:01;5.2;;;3.9;;
5403;SDS011;2725;51.054;6.948;2022-07-25T05:50:01;5.2;;;3.9;;
5403;SDS011;2725;51.054;6.948;2022-07-25T05:55:01;4.0;;;3.5;;
5403;SDS011;2725;51.054;6.948;2022-07-25T06:00:03;4.0;;;3.5;;
5403;SDS011;2725;51.054;6.948;2022-07-25T06:05:02;4.0;;;3.5;;
5403;SDS011;2725;51.054;6.948;2022-07-25T06:10:02;4.0;;;3.5;;
5403;SDS011;2725;51.054;6.948;2022-07-25T06:15:02;4.0;;;3.5;;
5403;SDS011;2725;51.054;6.948;2022-07-25T06:20:01;4.0;;;3.5;;
5403;SDS011;2725;51.054;6.948;2022-07-25T06:25:01;4.4;;;3.6;;
5403;SDS011;2725;51.054;6.948;2022-07-25T06:30:02;4.4;;;3.6;;
5403;SDS011;2725;51.054;6.948;2022-07-25T06:35:01;3.9;;;3.3;;
5403;SDS011;2725;51.054;6.948;2022-07-25T06:40:01;3.9;;;3.3;;
5403;SDS011;2725;51.054;6.948;2022-07-25T06:45:02;4.7;;;3.7;;
5403;SDS011;2725;51.054;6.948;2022-07-25T06:50:01;4.7;;;3.7;;
5403;SDS011;2725;51.054;6.948;2022-07-25T06:55:03;5.2;;;3.7;;
5403;SDS011;2725;51.054;6.948;2022-07-25T07:00:03;5.2;;;3.7;;
5403;SDS011;2725;51.054;6.948;2022-07-25T07:05:01;5.1;;;3.6;;
5403;SDS011;2725;51.054;6.948;2022-07-25T07:10:01;5.1;;;3.6;;
5403;SDS011;2725;51.054;6.948;2022-07-25T07:15:01;5.5;;;3.4;;
5403;SDS011;2725;51.054;6.948;2022-07-25T07:20:02;5.5;;;3.4;;
5403;SDS011;2725;51.054;6.948;2022-07-25T07:25:01;5.6;;;3.4;;
5403;SDS011;2725;51.054;6.948;2022-07-25T07:30:01;5.6;;;3.4;;
5403;SDS011;2725;51.054;6.948;2022-07-25T07:35:01;3.9;;;3.6;;
5403;SDS011;2725;51.054;6.948;2022-07-25T07:40:02;3.9;;;3.6;;
5403;SDS011;2725;51.054;6.948;2022-07-25T07:45:01;4.0;;;3.6;;
5403;SDS011;2725;51.054;6.948;2022-07-25T07:50:01;4.0;;;3.6;;
5403;SDS011;2725;51.054;6.948;2022-07-25T07:55:02;3.9;;;3.4;;
5403;SDS011;2725;51.054;6.948;2022-07-25T08:00:01;3.9;;;3.4;;
5403;SDS011;2725;51.054;6.948;2022-07-25T08:05:01;3.8;;;3.4;;
5403;SDS011;2725;51.054;6.948;2022-07-25T08:10:01;3.8;;;3.4;;
5403;SDS011;2725;51.054;6.948;2022-07-25T08:15:01;3.3;;;3.0;;
5403;SDS011;2725;51.054;6.948;2022-07-25T08:20:02;3.3;;;3.0;;
5403;SDS011;2725;51.054;6.948;2022-07-25T08:25:01;3.3;;;3.0;;
5403;SDS011;2725;51.054;6.948;2022-07-25T08:30:03;3.3;;;3.0;;
5403;SDS011;2725;51.054;6.948;2022-07-25T08:35:02;4.6;;;4.1;;
5403;SDS011;2725;51.054;6.948;2022-07-25T08:40:02;4.6;;;4.1;;
5403;SDS011;2725;51.054;6.948;2022-07-25T08:45:02;5.0;;;4.3;;
5403;SDS011;2725;51.054;6.948;2022-07-25T08:50:02;5.0;;;4.3;;
5403;SDS011;2725;51.054;6.948;2022-07-25T08:55:02;4.6;;;3.8;;
5403;SDS011;2725;51.054;6.948;2022-07-25T09:00:04;4.6;;;3.8;;
5403;SDS011;2725;51.054;6.948;2022-07-25T09:05:01;4.8;;;4.3;;
5403;SDS011;2725;51.054;6.948;2022-07-25T09:10:19;4.8;;;4.3;;
5403;SDS011;2725;51.054;6.948;2022-07-25T09:15:01;4.2;;;3.8;;
5403;SDS011;2725;51.054;6.948;2022-07-25T09:20:02;4.2;;;3.8;;
5403;SDS011;2725;51.054;6.948;2022-07-25T09:25:02;4.1;;;3.8;;
5403;SDS011;2725;51.054;6.948;2022-07-25T09:30:10;4.1;;;3.8;;
5403;SDS011;2725;51.054;6.948;2022-07-25T09:35:01;4.4;;;3.8;;
5403;SDS011;2725;51.054;6.948;2022-07-25T09:40:10;4.4;;;3.8;;
5403;SDS011;2725;51.054;6.948;2022-07-25T09:45:03;4.4;;;3.8;;
5403;SDS011;2725;51.054;6.948;2022-07-25T09:50:02;4.4;;;3.8;;
5403;SDS011;2725;51.054;6.948;2022-07-25T09:55:02;5.8;;;4.2;;
5403;SDS011;2725;51.054;6.948;2022-07-25T10:00:03;5.8;;;4.2;;
5403;SDS011;2725;51.054;6.948;2022-07-25T10:05:07;5.1;;;4.2;;
5403;SDS011;2725;51.054;6.948;2022-07-25T10:10:01;5.1;;;4.2;;
5403;SDS011;2725;51.054;6.948;2022-07-25T10:15:02;5.4;;;4.3;;
5403;SDS011;2725;51.054;6.948;2022-07-25T10:20:02;5.4;;;4.3;;
5403;SDS011;2725;51.054;6.948;2022-07-25T10:25:06;4.5;;;4.0;;
5403;SDS011;2725;51.054;6.948;2022-07-25T10:30:02;4.5;;;4.0;;
5403;SDS011;2725;51.054;6.948;2022-07-25T10:35:10;4.4;;;3.6;;
5403;SDS011;2725;51.054;6.948;2022-07-25T10:40:01;4.4;;;3.6;;
5403;SDS011;2725;51.054;6.948;2022-07-25T10:45:01;4.8;;;3.8;;
5403;SDS011;2725;51.054;6.948;2022-07-25T10:50:02;4.8;;;3.8;;
5403;SDS011;2725;51.054;6.948;2022-07-25T10:55:01;4.7;;;3.8;;
5403;SDS011;2725;51.054;6.948;2022-07-25T11:00:05;4.7;;;3.8;;
5403;SDS011;2725;51.054;6.948;2022-07-25T11:05:02;4.9;;;3.9;;
5403;SDS011;2725;51.054;6.948;2022-07-25T11:10:03;4.9;;;3.9;;
5403;SDS011;2725;51.054;6.948;2022-07-25T11:15:02;4.2;;;3.8;;
5403;SDS011;2725;51.054;6.948;2022-07-25T11:20:08;4.2;;;3.8;;
5403;SDS011;2725;51.054;6.948;2022-07-25T11:25:02;4.5;;;3.7;;
5403;SDS011;2725;51.054;6.948;2022-07-25T11:30:09;4.5;;;3.7;;
5403;SDS011;2725;51.054;6.948;2022-07-25T11:35:01;4.4;;;3.2;;
5403;SDS011;2725;51.054;6.948;2022-07-25T11:40:02;4.4;;;3.2;;
5403;SDS011;2725;51.054;6.948;2022-07-25T11:45:01;3.9;;;3.2;;
5403;SDS011;2725;51.054;6.948;2022-07-25T11:50:02;3.9;;;3.2;;
5403;SDS011;2725;51.054;6.948;2022-07-25T11:55:04;5.0;;;3.2;;
5403;SDS011;2725;51.054;6.948;2022-07-25T12:00:04;5.0;;;3.2;;
5403;SDS011;2725;51.054;6.948;2022-07-25T12:05:03;3.2;;;2.9;;
5403;SDS011;2725;51.054;6.948;2022-07-25T12:10:02;3.2;;;2.9;;
5403;SDS011;2725;51.054;6.948;2022-07-25T12:15:02;3.2;;;2.9;;
5403;SDS011;2725;51.054;6.948;2022-07-25T12:20:01;3.2;;;2.9;;
5403;SDS011;2725;51.054;6.948;2022-07-25T12:25:01;2.9;;;2.6;;
5403;SDS011;2725;51.054;6.948;2022-07-25T12:30:02;2.9;;;2.6;;
5403;SDS011;2725;51.054;6.948;2022-07-25T12:35:03;3.3;;;2.9;;
5403;SDS011;2725;51.054;6.948;2022-07-25T12:40:02;3.3;;;2.9;;
5403;SDS011;2725;51.054;6.948;2022-07-25T12:45:01;3.3;;;2.9;;
5403;SDS011;2725;51.054;6.948;2022-07-25T12:50:01;3.3;;;2.9;;
5403;SDS011;2725;51.054;6.948;2022-07-25T12:55:01;4.3;;;3.0;;
5403;SDS011;2725;51.054;6.948;2022-07-25T13:00:03;4.3;;;3.0;;
5403;SDS011;2725;51.054;6.948;2022-07-25T13:05:01;3.4;;;2.4;;
5403;SDS011;2725;51.054;6.948;2022-07-25T13:10:01;3.4;;;2.4;;
5403;SDS011;2725;51.054;6.948;2022-07-25T13:15:02;3.3;;;2.5;;
5403;SDS011;2725;51.054;6.948;2022-07-25T13:20:02;3.3;;;2.5;;
5403;SDS011;2725;51.054;6.948;2022-07-25T13:25:02;4.3;;;2.5;;
5403;SDS011;2725;51.054;6.948;2022-07-25T13:30:01;4.3;;;2.5;;
5403;SDS011;2725;51.054;6.948;2022-07-25T13:35:01;4.2;;;2.2;;
5403;SDS011;2725;51.054;6.948;2022-07-25T13:40:01;4.2;;;2.2;;
5403;SDS011;2725;51.054;6.948;2022-07-25T13:45:01;4.1;;;2.1;;
5403;SDS011;2725;51.054;6.948;2022-07-25T13:50:02;4.1;;;2.1;;
5403;SDS011;2725;51.054;6.948;2022-07-25T13:55:02;4.3;;;1.9;;
5403;SDS011;2725;51.054;6.948;2022-07-25T14:00:01;4.3;;;1.9;;
5403;SDS011;2725;51.054;6.948;2022-07-25T14:05:03;4.4;;;1.6;;
5403;SDS011;2725;51.054;6.948;2022-07-25T14:10:02;4.4;;;1.6;;
5403;SDS011;2725;51.054;6.948;2022-07-25T14:15:02;4.2;;;1.6;;
5403;SDS011;2725;51.054;6.948;2022-07-25T14:20:01;4.2;;;1.6;;
5403;SDS011;2725;51.054;6.948;2022-07-25T14:25:01;5.7;;;1.5;;
5403;SDS011;2725;51.054;6.948;2022-07-25T14:30:02;5.7;;;1.5;;
5403;SDS011;2725;51.054;6.948;2022-07-25T14:35:02;3.8;;;1.6;;
5403;SDS011;2725;51.054;6.948;2022-07-25T14:40:02;3.8;;;1.6;;
5403;SDS011;2725;51.054;6.948;2022-07-25T14:45:02;3.9;;;1.6;;
5403;SDS011;2725;51.054;6.948;2022-07-25T14:50:01;3.9;;;1.6;;
5403;SDS011;2725;51.054;6.948;2022-07-25T14:55:01;3.7;;;1.4;;
5403;SDS011;2725;51.054;6.948;2022-07-25T15:00:02;3.7;;;1.4;;
5403;SDS011;2725;51.054;6.948;2022-07-25T15:05:01;3.2;;;1.5;;
5403;SDS011;2725;51.054;6.948;2022-07-25T15:10:02;3.2;;;1.5;;
5403;SDS011;2725;51.054;6.948;2022-07-25T15:15:01;3.0;;;1.4;;
5403;SDS011;2725;51.054;6.948;2022-07-25T15:20:01;3.0;;;1.4;;
5403;SDS011;2725;51.054;6.948;2022-07-25T15:25:02;5.0;;;1.8;;
5403;SDS011;2725;51.054;6.948;2022-07-25T15:30:02;5.0;;;1.8;;
5403;SDS011;2725;51.054;6.948;2022-07-25T15:35:02;4.4;;;1.5;;
5403;SDS011;2725;51.054;6.948;2022-07-25T15:40:02;4.4;;;1.5;;
5403;SDS011;2725;51.054;6.948;2022-07-25T15:45:02;4.4;;;1.5;;
5403;SDS011;2725;51.054;6.948;2022-07-25T15:50:02;4.4;;;1.5;;
5403;SDS011;2725;51.054;6.948;2022-07-25T15:55:01;3.7;;;1.8;;
5403;SDS011;2725;51.054;6.948;2022-07-25T16:00:02;3.7;;;1.8;;
5403;SDS011;2725;51.054;6.948;2022-07-25T16:05:02;4.2;;;1.9;;
5403;SDS011;2725;51.054;6.948;2022-07-25T16:10:02;4.2;;;1.9;;
5403;SDS011;2725;51.054;6.948;2022-07-25T16:15:02;4.5;;;1.8;;
5403;SDS011;2725;51.054;6.948;2022-07-25T16:20:03;4.5;;;1.8;;
5403;SDS011;2725;51.054;6.948;2022-07-25T16:25:02;4.1;;;1.7;;
5403;SDS011;2725;51.054;6.948;2022-07-25T16:30:01;4.1;;;1.7;;
5403;SDS011;2725;51.054;6.948;2022-07-25T16:35:01;2.5;;;1.5;;
5403;SDS011;2725;51.054;6.948;2022-07-25T16:40:01;2.5;;;1.5;;
5403;SDS011;2725;51.054;6.948;2022-07-25T16:45:01;3.9;;;1.6;;
5403;SDS011;2725;51.054;6.948;2022-07-25T16:50:01;3.9;;;1.6;;
5403;SDS011;2725;51.054;6.948;2022-07-25T16:55:01;2.9;;;1.5;;
5403;SDS011;2725;51.054;6.948;2022-07-25T17:00:03;2.9;;;1.5;;
5403;SDS011;2725;51.054;6.948;2022-07-25T17:05:01;2.7;;;1.5;;
5403;SDS011;2725;51.054;6.948;2022-07-25T17:10:01;2.7;;;1.5;;
5403;SDS011;2725;51.054;6.948;2022-07-25T17:15:02;2.7;;;1.5;;
5403;SDS011;2725;51.054;6.948;2022-07-25T17:20:02;2.7;;;1.5;;
5403;SDS011;2725;51.054;6.948;2022-07-25T17:25:02;3.2;;;1.7;;
5403;SDS011;2725;51.054;6.948;2022-07-25T17:30:02;3.2;;;1.7;;
5403;SDS011;2725;51.054;6.948;2022-07-25T17:35:01;3.1;;;1.6;;
5403;SDS011;2725;51.054;6.948;2022-07-25T17:40:02;3.1;;;1.6;;
5403;SDS011;2725;51.054;6.948;2022-07-25T17:45:02;4.5;;;1.5;;
5403;SDS011;2725;51.054;6.948;2022-07-25T17:50:02;4.5;;;1.5;;
5403;SDS011;2725;51.054;6.948;2022-07-25T17:55:02;4.4;;;1.5;;
5403;SDS011;2725;51.054;6.948;2022-07-25T18:00:02;4.4;;;1.5;;
5403;SDS011;2725;51.054;6.948;2022-07-25T18:05:02;2.7;;;1.6;;
5403;SDS011;2725;51.054;6.948;2022-07-25T18:10:01;2.7;;;1.6;;
5403;SDS011;2725;51.054;6.948;2022-07-25T18:15:01;3.8;;;1.6;;
5403;SDS011;2725;51.054;6.948;2022-07-25T18:20:02;3.8;;;1.6;;
5403;SDS011;2725;51.054;6.948;2022-07-25T18:25:02;3.8;;;1.6;;
5403;SDS011;2725;51.054;6.948;2022-07-25T18:30:02;3.8;;;1.6;;
5403;SDS011;2725;51.054;6.948;2022-07-25T18:35:01;3.1;;;1.5;;
5403;SDS011;2725;51.054;6.948;2022-07-25T18:40:01;3.1;;;1.5;;
5403;SDS011;2725;51.054;6.948;2022-07-25T18:45:01;2.7;;;1.4;;
5403;SDS011;2725;51.054;6.948;2022-07-25T18:50:02;2.7;;;1.4;;
5403;SDS011;2725;51.054;6.948;2022-07-25T18:55:02;5.1;;;1.7;;
5403;SDS011;2725;51.054;6.948;2022-07-25T19:00:03;5.1;;;1.7;;
5403;SDS011;2725;51.054;6.948;2022-07-25T19:05:01;2.6;;;1.1;;
5403;SDS011;2725;51.054;6.948;2022-07-25T19:10:02;2.6;;;1.1;;
5403;SDS011;2725;51.054;6.948;2022-07-25T19:15:02;2.7;;;1.1;;
5403;SDS011;2725;51.054;6.948;2022-07-25T19:20:01;2.7;;;1.1;;
5403;SDS011;2725;51.054;6.948;2022-07-25T19:25:01;3.7;;;1.3;;
5403;SDS011;2725;51.054;6.948;2022-07-25T19:30:02;3.7;;;1.3;;
5403;SDS011;2725;51.054;6.948;2022-07-25T19:35:02;3.1;;;1.1;;
5403;SDS011;2725;51.054;6.948;2022-07-25T19:40:02;3.1;;;1.1;;
5403;SDS011;2725;51.054;6.948;2022-07-25T19:45:01;3.3;;;1.0;;
5403;SDS011;2725;51.054;6.948;2022-07-25T19:50:01;3.3;;;1.0;;
5403;SDS011;2725;51.054;6.948;2022-07-25T19:55:01;3.3;;;1.0;;
5403;SDS011;2725;51.054;6.948;2022-07-25T20:00:02;3.3;;;1.0;;
5403;SDS011;2725;51.054;6.948;2022-07-25T20:05:02;2.2;;;1.0;;
5403;SDS011;2725;51.054;6.948;2022-07-25T20:10:02;2.2;;;1.0;;
5403;SDS011;2725;51.054;6.948;2022-07-25T20:15:01;2.2;;;1.0;;
5403;SDS011;2725;51.054;6.948;2022-07-25T20:20:01;2.2;;;1.0;;
5403;SDS011;2725;51.054;6.948;2022-07-25T20:25:03;2.2;;;1.0;;
5403;SDS011;2725;51.054;6.948;2022-07-25T20:30:03;2.2;;;1.0;;
5403;SDS011;2725;51.054;6.948;2022-07-25T20:35:01;2.2;;;1.0;;
5403;SDS011;2725;51.054;6.948;2022-07-25T20:40:02;2.2;;;1.0;;
5403;SDS011;2725;51.054;6.948;2022-07-25T20:45:02;2.2;;;1.0;;
5403;SDS011;2725;51.054;6.948;2022-07-25T20:50:02;2.2;;;1.0;;
5403;SDS011;2725;51.054;6.948;2022-07-25T20:55:02;2.2;;;1.0;;
5403;SDS011;2725;51.054;6.948;2022-07-25T21:00:02;2.2;;;1.0;;
5403;SDS011;2725;51.054;6.948;2022-07-25T21:05:02;2.2;;;1.0;;
5403;SDS011;2725;51.054;6.948;2022-07-25T21:10:02;2.2;;;1.0;;
5403;SDS011;2725;51.054;6.948;2022-07-25T21:15:01;2.2;;;1.0;;
5403;SDS011;2725;51.054;6.948;2022-07-25T21:20:02;2.2;;;1.0;;
5403;SDS011;2725;51.054;6.948;2022-07-25T21:25:02;2.2;;;1.0;;
5403;SDS011;2725;51.054;6.948;2022-07-25T21:30:03;2.2;;;1.0;;
5403;SDS011;2725;51.054;6.948;2022-07-25T21:35:01;2.2;;;1.0;;
5403;SDS011;2725;51.054;6.948;2022-07-25T21:40:01;2.2;;;1.0;;
5403;SDS011;2725;51.054;6.948;2022-07-25T21:45:01;2.2;;;1.0;;
5403;SDS011;2725;51.054;6.948;2022-07-25T21:50:01;2.2;;;1.0;;
5403;SDS011;2725;51.054;6.948;2022-07-25T21:55:01;2.2;;;1.0;;
5403;SDS011;2725;51.054;6.948;2022-07-25T22:00:03;2.2;;;1.0;;
5403;SDS011;2725;51.054;6.948;2022-07-25T22:05:02;2.2;;;1.0;;
5403;SDS011;2725;51.054;6.948;2022-07-25T22:10:01;2.2;;;1.0;;
5403;SDS011;2725;51.054;6.948;2022-07-25T22:15:02;2.2;;;1.0;;
5403;SDS011;2725;51.054;6.948;2022-07-25T22:20:02;2.2;;;1.0;;
5403;SDS011;2725;51.054;6.948;2022-07-25T22:25:01;2.2;;;1.0;;
5403;SDS011;2725;51.054;6.948;2022-07-25T22:30:01;2.2;;;1.0;;
5403;SDS011;2725;51.054;6.948;2022-07-25T22:35:01;2.2;;;1.0;;
5403;SDS011;2725;51.054;6.948;2022-07-25T22:40:02;2.2;;;1.0;;
5403;SDS011;2725;51.054;6.948;2022-07-25T22:45:01;2.2;;;1.0;;
5403;SDS011;2725;51.054;6.948;2022-07-25T22:50:01;2.2;;;1.0;;
5403;SDS011;2725;51.054;6.948;2022-07-25T22:55:01;2.2;;;1.0;;
5403;SDS011;2725;51.054;6.948;2022-07-25T23:00:03;2.2;;;1.0;;
5403;SDS011;2725;51.054;6.948;2022-07-25T23:05:02;2.2;;;1.0;;
5403;SDS011;2725;51.054;6.948;2022-07-25T23:10:02;2.2;;;1.0;;
5403;SDS011;2725;51.054;6.948;2022-07-25T23:15:02;2.2;;;1.0;;
5403;SDS011;2725;51.054;6.948;2022-07-25T23:20:02;2.2;;;1.0;;
5403;SDS011;2725;51.054;6.948;2022-07-25T23:25:02;2.2;;;1.0;;
5403;SDS011;2725;51.054;6.948;2022-07-25T23:30:03;2.2;;;1.0;;
5403;SDS011;2725;51.054;6.948;2022-07-25T23:35:01;2.2;;;1.0;;
5403;SDS011;2725;51.054;6.948;2022-07-25T23:40:01;2.2;;;1.0;;
5403;SDS011;2725;51.054;6.948;2022-07-25T23:45:01;2.2;;;1.0;;
5403;SDS011;2725;51.054;6.948;2022-07-25T23:50:01;2.2;;;1.0;;
5403;SDS011;2725;51.054;6.948;2022-07-25T23:55:01;2.2;;;1.0;;
